Data for 08/18/2005

Time Sea-Level Adjusted Pressure Absolute Pressure Temperature Relative Humidity Dew Point   
(mb) (inHg) (mb) (inHg) (C) (F) (%) (C) (F)
00:05 1017 30.03 846 24.98 11.9 53.4 92 10.7 51.2
00:10 1017 30.03 846 24.98 11.9 53.3 91 10.5 50.8
00:15 1017 30.03 846 24.98 11.9 53.4 92 10.6 51.2
00:20 1017 30.03 846 24.98 11.8 53.3 92 10.6 51.1
00:25 1017 30.03 846 24.98 11.8 53.2 93 10.7 51.3
00:30 1017 30.03 846 24.98 11.7 53 94 10.8 51.5
00:35 1017 30.03 846 24.98 11.7 53 94 10.7 51.3
00:40 1017 30.03 846 24.98 11.7 53 94 10.7 51.3
00:45 1016 30 846 24.98 11.6 53 93 10.5 51
00:50 1016 30 846 24.98 11.7 53.1 94 10.7 51.3
00:55 1016 30 846 24.98 11.7 53.1 92 10.5 50.9
01:00 1017 30.03 846 24.98 11.8 53.2 91 10.5 50.8
01:05 1017 30.03 846 24.98 11.8 53.2 93 10.6 51.2
01:10 1017 30.03 846 24.98 11.7 53.1 93 10.7 51.2
01:15 1017 30.03 846 24.98 11.6 53 94 10.6 51.1
01:20 1017 30.03 846 24.98 11.6 52.8 93 10.5 51
01:25 1017 30.03 846 24.98 11.6 52.8 93 10.6 51
01:30 1016 30 846 24.98 11.5 52.8 93 10.5 50.9
01:35 1016 30 846 24.98 11.5 52.7 95 10.7 51.3
01:40 1016 30 846 24.98 11.4 52.6 94 10.4 50.8
01:45 1016 30 846 24.98 11.6 52.9 91 10.3 50.5
01:50 1016 30 846 24.98 11.6 52.9 93 10.5 50.9
01:55 1016 30 846 24.98 11.6 52.8 93 10.5 50.8
02:00 1016 30 846 24.98 11.5 52.7 93 10.5 50.8
02:05 1016 30 846 24.98 11.5 52.6 94 10.5 50.9
02:10 1016 30 846 24.98 11.6 52.8 91 10.2 50.3
02:15 1016 30 845 24.95 11.6 52.8 93 10.5 51
02:20 1016 30 845 24.95 11.5 52.6 93 10.4 50.8
02:25 1016 30 845 24.95 11.5 52.7 93 10.3 50.6
02:30 1016 30 845 24.95 11.5 52.7 93 10.4 50.7
02:35 1016 30 845 24.95 11.5 52.6 93 10.4 50.7
02:40 1016 30 845 24.95 11.4 52.5 93 10.3 50.6
02:45 1016 30 845 24.95 11.3 52.4 94 10.4 50.7
02:50 1016 30 845 24.95 11.4 52.4 92 10.2 50.3
02:55 1016 30 845 24.95 11.3 52.4 93 10.2 50.4
03:00 1016 30 845 24.95 11.3 52.3 93 10.2 50.3
03:05 1016 30 845 24.95 11.2 52.2 93 10.1 50.1
03:10 1016 30 845 24.95 11.1 52 93 10 49.9
03:15 1016 30 845 24.95 11.2 52.1 92 9.9 49.8
03:20 1016 30 845 24.95 11.2 52.2 91 9.8 49.6
03:25 1016 30 845 24.95 11.3 52.3 90 9.6 49.4
03:30 1016 30 845 24.95 11.4 52.5 90 9.8 49.7
03:35 1016 30 845 24.95 11.4 52.5 90 9.7 49.5
03:40 1016 30 845 24.95 11.3 52.3 90 9.7 49.5
03:45 1015 29.97 845 24.95 11.2 52.2 90 9.7 49.4
03:50 1015 29.97 845 24.95 11.2 52.2 91 9.8 49.7
03:55 1016 30 845 24.95 11.2 52.1 91 9.7 49.5
04:00 1016 30 845 24.95 11.3 52.4 91 9.9 49.8
04:05 1016 30 845 24.95 11.3 52.3 91 9.9 49.9
04:10 1016 30 845 24.95 11.3 52.3 92 10 50
04:15 1016 30 845 24.95 11.3 52.4 91 9.9 49.9
04:20 1016 30 845 24.95 11.5 52.6 91 10 50
04:25 1016 30 845 24.95 11.5 52.7 90 10 50
04:30 1016 30 845 24.95 11.6 52.9 90 10 50
04:35 1016 30 845 24.95 11.6 53 89 9.9 49.8
04:40 1016 30 845 24.95 11.6 52.9 90 10 50.1
04:45 1016 30 845 24.95 11.7 53 90 10.2 50.3
04:50 1016 30 845 24.95 11.5 52.7 93 10.4 50.8
04:55 1016 30 845 24.95 11.1 52 94 10.2 50.4
05:00 1016 30 845 24.95 11 51.7 92 9.7 49.5
05:05 1016 30 845 24.95 11.1 51.9 91 9.6 49.2
05:10 1016 30 845 24.95 11.1 51.9 91 9.7 49.4
05:15 1016 30 845 24.95 11.1 51.9 91 9.6 49.2
05:20 1015 29.97 845 24.95 11.2 52.2 87 9.2 48.6
05:25 1015 29.97 845 24.95 11.3 52.4 87 9.3 48.8
05:30 1015 29.97 845 24.95 11.4 52.4 88 9.5 49.1
05:35 1015 29.97 845 24.95 11.2 52.2 89 9.4 48.9
05:40 1015 29.97 845 24.95 11.1 52 90 9.5 49.1
05:45 1016 30 845 24.95 11 51.9 90 9.5 49.1
05:50 1016 30 845 24.95 11 51.8 91 9.6 49.4
05:55 1016 30 845 24.95 10.9 51.6 92 9.6 49.2
06:00 1016 30 845 24.95 10.5 51 93 9.4 49
06:05 1016 30 845 24.95 10.4 50.7 92 9.2 48.6
06:10 1016 30 845 24.95 10.4 50.8 92 9.3 48.7
06:15 1016 30 845 24.95 10.5 50.9 92 9.3 48.7
06:20 1016 30 845 24.95 10.4 50.8 93 9.4 48.9
06:25 1016 30 845 24.95 10 50.1 95 9.2 48.6
06:30 1016 30 845 24.95 10 50 94 9.1 48.5
06:35 1016 30 845 24.95 10 50.1 94 9.1 48.4
06:40 1016 30 845 24.95 10.1 50.3 93 9 48.3
06:45 1016 30 845 24.95 10.3 50.5 93 9.2 48.6
06:50 1016 30 845 24.95 10.3 50.5 94 9.4 48.9
06:55 1016 30 845 24.95 10.2 50.4 94 9.3 48.8
07:00 1016 30 845 24.95 10.1 50.3 94 9.3 48.7
07:05 1016 30 845 24.95 10.1 50.3 95 9.4 49
07:10 1016 30 845 24.95 10.3 50.5 96 9.6 49.3
07:15 1016 30 845 24.95 10.4 50.7 95 9.6 49.3
07:20 1016 30 846 24.98 10.6 51 94 9.7 49.4
07:25 1016 30 846 24.98 10.7 51.2 94 9.7 49.5
07:30 1016 30 846 24.98 10.8 51.4 93 9.7 49.4
07:35 1016 30 846 24.98 10.9 51.5 92 9.7 49.4
07:40 1016 30 846 24.98 10.8 51.4 93 9.7 49.4
07:45 1016 30 846 24.98 11 51.7 92 9.6 49.3
07:50 1016 30 846 24.98 11.1 52 91 9.6 49.4
07:55 1016 30 846 24.98 11.3 52.3 90 9.8 49.6
08:00 1016 30 846 24.98 11.3 52.4 90 9.8 49.6
08:05 1016 30 846 24.98 11.1 52.1 92 9.8 49.7
08:10 1016 30 846 24.98 11 51.9 92 9.8 49.6
08:15 1016 30 846 24.98 11.1 51.9 92 9.7 49.5
08:20 1016 30 845 24.95 11.1 52 90 9.5 49.2
08:25 1016 30 845 24.95 11.2 52.1 90 9.6 49.3
08:30 1016 30 846 24.98 11 51.8 91 9.6 49.4
08:35 1016 30 846 24.98 11 51.9 91 9.7 49.4
08:40 1016 30 845 24.95 10.9 51.5 92 9.7 49.4
08:45 1016 30 845 24.95 11.4 52.5 89 9.7 49.5
08:50 1016 30 845 24.95 11.5 52.7 90 10 49.9
08:55 1016 30 845 24.95 11.2 52.1 91 9.7 49.5
09:00 1016 30 845 24.95 11 51.7 91 9.5 49.1
09:05 1016 30 846 24.98 10.8 51.5 91 9.4 49
09:10 1016 30 845 24.95 11 51.7 90 9.4 48.9
09:15 1016 30 846 24.98 11.4 52.6 87 9.4 49
09:20 1016 30 846 24.98 11.5 52.6 88 9.5 49.1
09:25 1016 30 846 24.98 11.9 53.3 86 9.6 49.2
09:30 1016 30 846 24.98 11.9 53.4 88 9.9 49.8
09:35 1016 30 846 24.98 12.2 53.9 84 9.6 49.3
09:40 1016 30 846 24.98 12.7 54.9 83 9.9 49.9
09:45 1016 30 845 24.95 12.8 55.1 82 9.8 49.7
09:50 1016 30 846 24.98 12.9 55.1 81 9.6 49.3
09:55 1016 30 846 24.98 13.3 55.9 79 9.6 49.3
10:00 1016 30 846 24.98 14.1 57.5 74 9.7 49.5
10:05 1016 30 845 24.95 14.3 57.8 76 10.2 50.3
10:10 1016 30 845 24.95 14.5 58.2 73 9.7 49.5
10:15 1016 30 845 24.95 14.7 58.5 74 10.1 50.2
10:20 1016 30 845 24.95 14.8 58.6 74 10.1 50.3
10:25 1016 30 845 24.95 14.6 58.3 74 10 50
10:30 1016 30 845 24.95 14.7 58.4 74 10.2 50.4
10:35 1016 30 845 24.95 14.9 58.8 72 10 50
10:40 1016 30 845 24.95 15 59 73 10.3 50.6
10:45 1016 30 845 24.95 14.7 58.5 76 10.6 51
10:50 1016 30 845 24.95 14.3 57.7 77 10.4 50.6
10:55 1016 30 845 24.95 14.2 57.5 77 10.3 50.5
11:00 1016 30 845 24.95 14.4 58 76 10.2 50.4
11:05 1016 30 845 24.95 14.4 58 76 10.4 50.7
11:10 1016 30 845 24.95 14.6 58.3 74 10 50.1
11:15 1016 30 845 24.95 15 59 73 10.2 50.3
11:20 1016 30 845 24.95 14.8 58.6 74 10.3 50.5
11:25 1016 30 845 24.95 14.4 57.8 76 10.2 50.4
11:30 1016 30 845 24.95 14.3 57.8 76 10.1 50.2
11:35 1016 30 845 24.95 14.4 58 74 10 49.9
11:40 1016 30 845 24.95 14.6 58.4 74 10.1 50.2
11:45 1016 30 845 24.95 14.5 58 74 10 50
11:50 1016 30 845 24.95 14.4 57.9 74 9.8 49.6
11:55 1016 30 845 24.95 14.9 58.9 73 10.1 50.2
12:00 1016 30 845 24.95 15.3 59.5 70 9.9 49.8
12:05 1016 30 845 24.95 15.6 60 71 10.3 50.6
12:10 1016 30 845 24.95 15.8 60.4 68 9.9 49.9
12:15 1016 30 845 24.95 16.1 60.9 66 9.7 49.4
12:20 1015 29.97 845 24.95 17 62.6 61 9.6 49.3
12:25 1015 29.97 845 24.95 17.3 63.1 65 10.8 51.4
12:30 1015 29.97 845 24.95 17.1 62.8 65 10.5 51
12:35 1015 29.97 845 24.95 17.1 62.8 62 9.9 49.8
12:40 1015 29.97 845 24.95 17.6 63.6 62 10.2 50.4
12:45 1015 29.97 845 24.95 18.1 64.5 59 9.9 49.9
12:50 1015 29.97 845 24.95 17.5 63.6 62 10.3 50.5
12:55 1015 29.97 845 24.95 18 64.4 58 9.6 49.4
13:00 1015 29.97 845 24.95 17.3 63.2 63 10.3 50.5
13:05 1015 29.97 845 24.95 16.6 61.8 62 9.5 49
13:10 1015 29.97 845 24.95 16.7 62 64 9.9 49.8
13:15 1015 29.97 845 24.95 16.5 61.6 66 10.3 50.5
13:20 1015 29.97 845 24.95 16 60.8 66 9.7 49.4
13:25 1015 29.97 844 24.92 15.7 60.3 69 10 50
13:30 1015 29.97 845 24.95 15.9 60.6 67 9.9 49.8
13:35 1015 29.97 845 24.95 15.9 60.5 68 10 50
13:40 1015 29.97 845 24.95 16.1 61 65 9.7 49.5
13:45 1015 29.97 844 24.92 16.6 61.9 64 9.9 49.8
13:50 1015 29.97 844 24.92 17.1 62.8 62 9.7 49.5
13:55 1015 29.97 844 24.92 17.9 64.2 59 10 49.9
14:00 1015 29.97 844 24.92 16.9 62.4 67 10.7 51.3
14:05 1015 29.97 844 24.92 16.5 61.6 66 10.2 50.3
14:10 1015 29.97 844 24.92 17.2 62.9 62 10 50
14:15 1015 29.97 844 24.92 17.8 64 61 10.2 50.3
14:20 1015 29.97 844 24.92 17.6 63.6 62 10.3 50.5
14:25 1015 29.97 844 24.92 17.7 63.9 62 10.5 50.9
14:30 1015 29.97 844 24.92 17.8 64 63 10.8 51.4
14:35 1015 29.97 844 24.92 17.6 63.6 64 10.6 51.2
14:40 1015 29.97 844 24.92 17.1 62.7 64 10.3 50.5
14:45 1015 29.97 844 24.92 17.6 63.7 63 10.6 51
14:50 1015 29.97 844 24.92 17.3 63.2 63 10.4 50.6
14:55 1015 29.97 844 24.92 17.7 63.8 61 10.2 50.3
15:00 1015 29.97 844 24.92 17.7 63.8 61 10.1 50.3
15:05 1015 29.97 844 24.92 17.8 64.1 57 9.3 48.8
15:10 1015 29.97 844 24.92 18.4 65.1 57 9.8 49.6
15:15 1015 29.97 844 24.92 18.3 64.9 56 9.5 49.1
15:20 1015 29.97 844 24.92 18.7 65.7 54 9.2 48.6
15:25 1014 29.94 844 24.92 18.9 66 49 8.2 46.8
15:30 1014 29.94 844 24.92 18.8 65.8 44 6.4 43.5
15:35 1014 29.94 844 24.92 18.7 65.7 45 6.5 43.8
15:40 1014 29.94 844 24.92 18.7 65.7 41 5.5 41.8
15:45 1014 29.94 844 24.92 19.6 67.2 38 5.1 41.1
15:50 1014 29.94 844 24.92 20.1 68.2 36 4.7 40.5
15:55 1014 29.94 844 24.92 20.8 69.5 33 4.3 39.7
16:00 1014 29.94 844 24.92 21 69.8 35 5.2 41.3
16:05 1014 29.94 844 24.92 20.9 69.5 39 6.4 43.5
16:10 1014 29.94 844 24.92 21.1 70 36 5.4 41.8
16:15 1014 29.94 843 24.89 20.7 69.2 39 6.3 43.3
16:20 1014 29.94 843 24.89 20.2 68.4 40 6.4 43.4
16:25 1014 29.94 843 24.89 20.5 69 36 5.2 41.3
16:30 1014 29.94 843 24.89 21.4 70.4 38 6.6 43.9
16:35 1014 29.94 843 24.89 20.2 68.3 40 6.3 43.3
16:40 1014 29.94 843 24.89 20.4 68.6 39 6.1 43
16:45 1014 29.94 843 24.89 20.5 68.8 38 6 42.8
16:50 1014 29.94 843 24.89 21.6 70.8 35 5.7 42.2
16:55 1014 29.94 843 24.89 21.8 71.2 35 5.9 42.6
17:00 1014 29.94 843 24.89 20.9 69.6 40 6.9 44.5
17:05 1014 29.94 843 24.89 20 67.9 43 7 44.7
17:10 1014 29.94 843 24.89 19.3 66.7 46 7.4 45.3
17:15 1014 29.94 843 24.89 18.7 65.6 47 7.3 45.1
17:20 1014 29.94 843 24.89 18.7 65.6 48 7.4 45.3
17:25 1014 29.94 844 24.92 18.9 66 47 7.4 45.2
17:30 1014 29.94 843 24.89 18.8 65.9 45 6.8 44.2
17:35 1014 29.94 843 24.89 19 66.1 44 6.6 43.9
17:40 1014 29.94 843 24.89 19.3 66.8 44 6.7 44.1
17:45 1014 29.94 843 24.89 19.9 67.9 41 6.4 43.5
17:50 1014 29.94 843 24.89 20.5 68.9 39 6.1 42.9
17:55 1014 29.94 844 24.92 20.3 68.5 40 6.6 43.8
18:00 1014 29.94 844 24.92 19.7 67.5 38 5.3 41.5
18:05 1014 29.94 844 24.92 19.4 67 39 5.1 41.2
18:10 1014 29.94 844 24.92 19.3 66.7 53 9.5 49
18:15 1014 29.94 844 24.92 18.9 66 56 9.9 49.9
18:20 1014 29.94 844 24.92 18.3 65 57 9.9 49.8
18:25 1014 29.94 844 24.92 17.9 64.3 61 10.4 50.7
18:30 1014 29.94 844 24.92 18.1 64.6 58 9.9 49.9
18:35 1014 29.94 844 24.92 18.4 65.2 59 10.4 50.8
18:40 1014 29.94 844 24.92 18.1 64.5 59 10 50.1
18:45 1014 29.94 844 24.92 18 64.4 60 10.1 50.2
18:50 1014 29.94 844 24.92 17.9 64.2 59 9.9 49.9
18:55 1014 29.94 844 24.92 17.8 64 59 9.7 49.5
19:00 1014 29.94 844 24.92 17.8 64 59 9.8 49.7
19:05 1014 29.94 844 24.92 17.8 64.1 59 9.8 49.6
19:10 1014 29.94 843 24.89 17.8 64.1 59 9.9 49.8
19:15 1014 29.94 843 24.89 17.7 63.8 61 10.2 50.3
19:20 1014 29.94 844 24.92 17.5 63.4 62 10.3 50.6
19:25 1014 29.94 844 24.92 17.3 63.1 64 10.4 50.7
19:30 1015 29.97 844 24.92 17.1 62.8 64 10.4 50.8
19:35 1015 29.97 844 24.92 17.2 62.9 65 10.5 50.9
19:40 1015 29.97 844 24.92 17.1 62.8 65 10.6 51.1
19:45 1015 29.97 844 24.92 17.2 62.9 64 10.5 50.9
19:50 1015 29.97 844 24.92 16.9 62.5 65 10.3 50.6
19:55 1015 29.97 844 24.92 16.8 62.3 65 10.4 50.7
20:00 1015 29.97 844 24.92 16.7 62 65 10.1 50.2
20:05 1015 29.97 844 24.92 16.7 62 65 10.1 50.1
20:10 1015 29.97 844 24.92 16.5 61.7 66 10.2 50.3
20:15 1015 29.97 844 24.92 16.4 61.5 66 10.1 50.1
20:20 1015 29.97 844 24.92 16.2 61.1 67 10 50.1
20:25 1015 29.97 844 24.92 16 60.9 67 9.9 49.9
20:30 1015 29.97 844 24.92 15.8 60.5 67 9.7 49.5
20:35 1015 29.97 844 24.92 15.7 60.3 68 9.8 49.7
20:40 1015 29.97 844 24.92 15.6 60.1 67 9.6 49.4
20:45 1015 29.97 844 24.92 15.5 59.9 68 9.6 49.3
20:50 1015 29.97 845 24.95 15.5 59.9 69 9.8 49.7
20:55 1015 29.97 845 24.95 15.4 59.7 70 9.9 49.9
21:00 1016 30 845 24.95 15.3 59.5 70 9.8 49.7
21:05 1016 30 845 24.95 15.2 59.3 70 9.9 49.8
21:10 1016 30 845 24.95 15.1 59.2 71 9.9 49.8
21:15 1016 30 845 24.95 15.1 59.2 71 9.9 49.8
21:20 1016 30 845 24.95 15 59.1 72 10 50
21:25 1016 30 845 24.95 14.9 58.9 72 10 49.9
21:30 1016 30 846 24.98 14.9 58.8 73 10.1 50.2
21:35 1016 30 846 24.98 14.7 58.4 74 10.2 50.4
21:40 1016 30 846 24.98 14.4 58 76 10.3 50.5
21:45 1017 30.03 846 24.98 14.1 57.4 78 10.3 50.6
21:50 1017 30.03 846 24.98 13.8 56.9 79 10.3 50.6
21:55 1017 30.03 846 24.98 13.7 56.6 80 10.3 50.6
22:00 1017 30.03 846 24.98 13.5 56.2 80 10.2 50.3
22:05 1017 30.03 846 24.98 13.3 56 81 10.1 50.2
22:10 1017 30.03 846 24.98 13.2 55.8 81 10 50.1
22:15 1017 30.03 846 24.98 13.2 55.7 81 10.1 50.1
22:20 1017 30.03 846 24.98 13.2 55.7 81 10 50.1
22:25 1017 30.03 846 24.98 13.1 55.6 81 10 49.9
22:30 1017 30.03 846 24.98 13.1 55.6 81 9.9 49.9
22:35 1017 30.03 846 24.98 13.2 55.7 80 9.9 49.7
22:40 1017 30.03 846 24.98 13.3 55.9 80 9.9 49.8
22:45 1017 30.03 846 24.98 13.4 56.2 78 9.6 49.3
22:50 1017 30.03 846 24.98 13.5 56.3 77 9.6 49.3
22:55 1017 30.03 846 24.98 13.4 56.2 78 9.7 49.4
23:00 1017 30.03 846 24.98 13.3 55.9 79 9.7 49.5
23:05 1017 30.03 846 24.98 13.2 55.7 80 9.7 49.5
23:10 1017 30.03 846 24.98 13 55.4 81 9.8 49.6
23:15 1017 30.03 846 24.98 12.9 55.2 80 9.6 49.3
23:20 1017 30.03 846 24.98 12.9 55.2 80 9.6 49.3
23:25 1017 30.03 846 24.98 12.8 55.1 81 9.7 49.4
23:30 1017 30.03 846 24.98 12.8 55.1 80 9.4 49
23:35 1017 30.03 846 24.98 13 55.4 79 9.5 49.2
23:40 1017 30.03 847 25.01 13.1 55.5 79 9.5 49.2
23:45 1017 30.03 847 25.01 13.2 55.7 76 9.2 48.5
23:50 1017 30.03 847 25.01 13.1 55.6 79 9.6 49.3
23:55 1017 30.03 847 25.01 12.9 55.3 80 9.7 49.4
24:00 1017 30.03 847 25.01 12.8 55 81 9.6 49.4